Hundvaag 1 weather for Oct 1989
Month no. 28
Obs.
Da.
Temp. Dew Point Precip. Wind
Speed
Wind gusts Cloud cover Press. Humidity Wind dir. Sunny OPT
01.10.1989 10,3   2,2                
02.10.1989 10,5   0,3                
03.10.1989 4,1   1,1             1  
04.10.1989 4,4   0,0                
05.10.1989 9,6   0,0                
06.10.1989 9,2   4,9                
07.10.1989 7,4   8,3             1  
08.10.1989 8,3   1,3                
09.10.1989 7,1   14,6             1  
10.10.1989 2,7   0,0                
11.10.1989 4,8   12,0                
12.10.1989 5,7   2,0                
13.10.1989 7,1   9,9             1  
14.10.1989 5,8   21,2             1  
15.10.1989 5,8   1,2             1  
16.10.1989 9,1   5,3                
17.10.1989 11,4   15,6                
18.10.1989 11,2   7,0                
19.10.1989 10,3   2,0                
20.10.1989 14,2   1,6                
21.10.1989 11,2   10,2             1  
22.10.1989 12,1   2,7             1  
23.10.1989 10,2   26,2             1  
24.10.1989 8,7   5,2                
25.10.1989 8,7   21,1             1  
26.10.1989 8,2   3,3             1  
27.10.1989 5,3   4,5             1  
28.10.1989 10,5   2,9             1  
29.10.1989 10,2   2,7             1  
30.10.1989 8,6   0,5             1  
31.10.1989 5,3   0,0             1  
Avrg/Sum 8,3   189,8             16